Main page
METAR-TAF:

METAR-TAF

Airports :

Diepholz Air Base

Diepholz, Germany

latitude: 52-35N, longitude: 008-21E, elevation: 39 m

Current weather observation

The report was made 6 hours and 42 minutes ago, at 13:20 UTC
Wind 4 kt from the East
Temperature 23°C
Humidity 41%
Pressure 1015 hPa
Visibility 10 km or more
Few clouds at a height of 27000 ft

METAR: ETND 211320Z 10004KT 9999 FEW270 23/09 Q1015 BLU+

Time: 22:02 (20:02 UTC)

Forecast

The report was made 10 hours and 2 minutes ago, at 10:00 UTC
Forecast valid from 21 at 11 UTC to 21 at 20 UTC
Wind 7 kt from the East
Visibility 10 km or more
Clear sky

TAF: ETND 211000Z 2111/2120 09007KT 9999 NSW SKC BY ETGL

Weather observations and forecasts of more than 4000 airports (METAR and TAF reports).

The available stations are represented by yellow and red dots on the map.

Hover mouse over dot to see the name of the station.

Then click to see weather observations and forecasts.

To change the map : click on the green buttons with a black cross to zoom in, on the green button with a dash to zoom out, or on the green arrows for adjacent maps.


METAR-TAF: